sensor_id;sensor_type;location;lat;lon;timestamp;pressure;altitude;pressure_sealevel;temperature;humidity
32131;BME280;18639;50.716;7.086;2023-08-07T00:02:01;100073.75;;;13.22;100.00
32131;BME280;18639;50.716;7.086;2023-08-07T00:04:26;100070.59;;;13.18;100.00
32131;BME280;18639;50.716;7.086;2023-08-07T00:06:52;100034.75;;;12.90;100.00
32131;BME280;18639;50.716;7.086;2023-08-07T00:09:17;100035.31;;;13.04;100.00
32131;BME280;18639;50.716;7.086;2023-08-07T00:11:42;100067.16;;;13.18;100.00
32131;BME280;18639;50.716;7.086;2023-08-07T00:14:08;100048.06;;;13.07;100.00
32131;BME280;18639;50.716;7.086;2023-08-07T00:16:33;100075.06;;;13.16;100.00
32131;BME280;18639;50.716;7.086;2023-08-07T00:18:58;100016.53;;;12.80;100.00
32131;BME280;18639;50.716;7.086;2023-08-07T00:21:24;100001.41;;;12.85;100.00
32131;BME280;18639;50.716;7.086;2023-08-07T00:23:49;100004.13;;;12.84;100.00
32131;BME280;18639;50.716;7.086;2023-08-07T00:26:15;100063.63;;;13.19;100.00
32131;BME280;18639;50.716;7.086;2023-08-07T00:28:40;100035.78;;;12.98;100.00
32131;BME280;18639;50.716;7.086;2023-08-07T00:31:06;100073.75;;;13.22;100.00
32131;BME280;18639;50.716;7.086;2023-08-07T00:33:31;100024.97;;;12.93;100.00
32131;BME280;18639;50.716;7.086;2023-08-07T00:35:56;99999.56;;;12.76;100.00
32131;BME280;18639;50.716;7.086;2023-08-07T00:38:22;100030.72;;;13.08;100.00
32131;BME280;18639;50.716;7.086;2023-08-07T00:40:47;100071.72;;;13.25;100.00
32131;BME280;18639;50.716;7.086;2023-08-07T00:43:13;100032.53;;;12.96;100.00
32131;BME280;18639;50.716;7.086;2023-08-07T00:45:42;100057.50;;;13.08;100.00
32131;BME280;18639;50.716;7.086;2023-08-07T00:48:09;100041.81;;;12.99;100.00
32131;BME280;18639;50.716;7.086;2023-08-07T00:50:34;100026.72;;;12.93;100.00
32131;BME280;18639;50.716;7.086;2023-08-07T00:53:00;100055.50;;;13.01;100.00
32131;BME280;18639;50.716;7.086;2023-08-07T00:55:26;100028.88;;;12.88;100.00
32131;BME280;18639;50.716;7.086;2023-08-07T00:57:52;100059.13;;;13.09;100.00
32131;BME280;18639;50.716;7.086;2023-08-07T01:00:18;100080.59;;;13.23;100.00
32131;BME280;18639;50.716;7.086;2023-08-07T01:02:44;100041.59;;;12.91;100.00
32131;BME280;18639;50.716;7.086;2023-08-07T01:05:09;100045.03;;;12.91;100.00
32131;BME280;18639;50.716;7.086;2023-08-07T01:07:34;100052.97;;;13.11;100.00
32131;BME280;18639;50.716;7.086;2023-08-07T01:10:00;100022.06;;;12.87;100.00
32131;BME280;18639;50.716;7.086;2023-08-07T01:12:37;100083.06;;;13.24;100.00
32131;BME280;18639;50.716;7.086;2023-08-07T01:17:33;100058.19;;;13.11;100.00
32131;BME280;18639;50.716;7.086;2023-08-07T01:20:00;100083.19;;;13.23;100.00
32131;BME280;18639;50.716;7.086;2023-08-07T01:22:27;100095.19;;;13.35;100.00
32131;BME280;18639;50.716;7.086;2023-08-07T01:24:52;100110.31;;;13.30;100.00
32131;BME280;18639;50.716;7.086;2023-08-07T01:29:56;100047.13;;;12.97;100.00
32131;BME280;18639;50.716;7.086;2023-08-07T01:32:29;100056.31;;;13.01;100.00
32131;BME280;18639;50.716;7.086;2023-08-07T01:34:58;100085.53;;;13.26;100.00
32131;BME280;18639;50.716;7.086;2023-08-07T01:37:29;100070.13;;;13.13;100.00
32131;BME280;18639;50.716;7.086;2023-08-07T01:39:58;100056.53;;;12.98;100.00
32131;BME280;18639;50.716;7.086;2023-08-07T01:42:25;100054.22;;;12.95;100.00
32131;BME280;18639;50.716;7.086;2023-08-07T01:44:51;100062.00;;;12.95;100.00
32131;BME280;18639;50.716;7.086;2023-08-07T01:47:16;100083.66;;;13.17;100.00
32131;BME280;18639;50.716;7.086;2023-08-07T01:49:42;100094.63;;;13.20;100.00
32131;BME280;18639;50.716;7.086;2023-08-07T01:52:08;100087.53;;;13.11;100.00
32131;BME280;18639;50.716;7.086;2023-08-07T01:54:33;100101.47;;;13.21;100.00
32131;BME280;18639;50.716;7.086;2023-08-07T01:56:58;100099.94;;;13.19;100.00
32131;BME280;18639;50.716;7.086;2023-08-07T01:59:24;100101.34;;;13.23;100.00
32131;BME280;18639;50.716;7.086;2023-08-07T02:01:49;100084.03;;;13.12;100.00
32131;BME280;18639;50.716;7.086;2023-08-07T02:04:15;100055.59;;;12.99;100.00
32131;BME280;18639;50.716;7.086;2023-08-07T02:06:40;100102.75;;;13.27;100.00
32131;BME280;18639;50.716;7.086;2023-08-07T02:09:05;100103.56;;;13.27;100.00
32131;BME280;18639;50.716;7.086;2023-08-07T02:11:31;100105.22;;;13.28;100.00
32131;BME280;18639;50.716;7.086;2023-08-07T02:13:56;100107.94;;;13.27;100.00
32131;BME280;18639;50.716;7.086;2023-08-07T02:16:21;100103.31;;;13.30;100.00
32131;BME280;18639;50.716;7.086;2023-08-07T02:18:47;100085.06;;;13.09;100.00
32131;BME280;18639;50.716;7.086;2023-08-07T02:21:12;100084.94;;;13.11;100.00
32131;BME280;18639;50.716;7.086;2023-08-07T02:23:38;100114.03;;;13.37;100.00
32131;BME280;18639;50.716;7.086;2023-08-07T02:26:04;100083.22;;;13.12;100.00
32131;BME280;18639;50.716;7.086;2023-08-07T02:28:29;100117.56;;;13.36;100.00
32131;BME280;18639;50.716;7.086;2023-08-07T02:30:54;100086.03;;;13.08;100.00
32131;BME280;18639;50.716;7.086;2023-08-07T02:33:20;100057.06;;;12.92;100.00
32131;BME280;18639;50.716;7.086;2023-08-07T02:35:45;100100.63;;;13.09;100.00
32131;BME280;18639;50.716;7.086;2023-08-07T02:38:11;100097.84;;;13.13;100.00
32131;BME280;18639;50.716;7.086;2023-08-07T02:40:36;100123.75;;;13.24;100.00
32131;BME280;18639;50.716;7.086;2023-08-07T02:43:01;100117.75;;;13.23;100.00
32131;BME280;18639;50.716;7.086;2023-08-07T02:45:27;100076.38;;;12.88;100.00
32131;BME280;18639;50.716;7.086;2023-08-07T02:47:52;100123.75;;;13.24;100.00
32131;BME280;18639;50.716;7.086;2023-08-07T02:50:17;100095.69;;;13.06;100.00
32131;BME280;18639;50.716;7.086;2023-08-07T02:52:43;100120.91;;;13.27;100.00
32131;BME280;18639;50.716;7.086;2023-08-07T02:55:08;100120.22;;;13.25;100.00
32131;BME280;18639;50.716;7.086;2023-08-07T02:57:34;100130.59;;;13.25;100.00
32131;BME280;18639;50.716;7.086;2023-08-07T02:59:59;100103.22;;;13.09;100.00
32131;BME280;18639;50.716;7.086;2023-08-07T03:02:25;100089.41;;;13.09;100.00
32131;BME280;18639;50.716;7.086;2023-08-07T03:04:50;100082.75;;;12.95;100.00
32131;BME280;18639;50.716;7.086;2023-08-07T03:07:15;100126.00;;;13.28;100.00
32131;BME280;18639;50.716;7.086;2023-08-07T03:09:42;100125.28;;;13.26;100.00
32131;BME280;18639;50.716;7.086;2023-08-07T03:12:09;100138.41;;;13.25;100.00
32131;BME280;18639;50.716;7.086;2023-08-07T03:14:35;100080.88;;;12.86;100.00
32131;BME280;18639;50.716;7.086;2023-08-07T03:17:00;100088.63;;;12.97;100.00
32131;BME280;18639;50.716;7.086;2023-08-07T03:19:26;100111.00;;;13.09;100.00
32131;BME280;18639;50.716;7.086;2023-08-07T03:21:51;100099.94;;;13.07;100.00
32131;BME280;18639;50.716;7.086;2023-08-07T03:24:16;100136.97;;;13.21;100.00
32131;BME280;18639;50.716;7.086;2023-08-07T03:26:42;100044.13;;;12.70;100.00
32131;BME280;18639;50.716;7.086;2023-08-07T03:29:07;100075.09;;;12.83;100.00
32131;BME280;18639;50.716;7.086;2023-08-07T03:31:32;100131.09;;;13.19;100.00
32131;BME280;18639;50.716;7.086;2023-08-07T03:33:58;100111.00;;;13.09;100.00
32131;BME280;18639;50.716;7.086;2023-08-07T03:36:23;100085.78;;;13.00;100.00
32131;BME280;18639;50.716;7.086;2023-08-07T03:38:49;100128.94;;;13.24;100.00
32131;BME280;18639;50.716;7.086;2023-08-07T03:41:14;100097.81;;;13.01;100.00
32131;BME280;18639;50.716;7.086;2023-08-07T03:43:39;100085.34;;;12.84;100.00
32131;BME280;18639;50.716;7.086;2023-08-07T03:46:05;100054.03;;;12.65;100.00
32131;BME280;18639;50.716;7.086;2023-08-07T03:48:30;100132.38;;;13.13;100.00
32131;BME280;18639;50.716;7.086;2023-08-07T03:51:06;100108.69;;;12.95;100.00
32131;BME280;18639;50.716;7.086;2023-08-07T03:53:35;100130.81;;;12.99;100.00
32131;BME280;18639;50.716;7.086;2023-08-07T03:56:00;100107.38;;;12.90;100.00
32131;BME280;18639;50.716;7.086;2023-08-07T03:58:26;100099.03;;;12.86;100.00
32131;BME280;18639;50.716;7.086;2023-08-07T04:00:51;100128.47;;;12.96;100.00
32131;BME280;18639;50.716;7.086;2023-08-07T04:03:18;100078.28;;;12.64;100.00
32131;BME280;18639;50.716;7.086;2023-08-07T04:05:43;100065.44;;;12.51;100.00
32131;BME280;18639;50.716;7.086;2023-08-07T04:08:09;100075.22;;;12.48;100.00
32131;BME280;18639;50.716;7.086;2023-08-07T04:10:34;100137.09;;;12.86;100.00
32131;BME280;18639;50.716;7.086;2023-08-07T04:13:00;100138.16;;;12.94;100.00
32131;BME280;18639;50.716;7.086;2023-08-07T04:15:25;100139.81;;;12.84;100.00
32131;BME280;18639;50.716;7.086;2023-08-07T04:17:51;100092.44;;;12.49;100.00
32131;BME280;18639;50.716;7.086;2023-08-07T04:20:16;100076.63;;;12.41;100.00
32131;BME280;18639;50.716;7.086;2023-08-07T04:22:42;100099.97;;;12.52;100.00
32131;BME280;18639;50.716;7.086;2023-08-07T04:25:08;100104.22;;;12.53;100.00
32131;BME280;18639;50.716;7.086;2023-08-07T04:27:33;100089.22;;;12.45;100.00
32131;BME280;18639;50.716;7.086;2023-08-07T04:29:58;100137.22;;;12.73;100.00
32131;BME280;18639;50.716;7.086;2023-08-07T04:32:24;100158.41;;;12.78;100.00
32131;BME280;18639;50.716;7.086;2023-08-07T04:34:49;100126.00;;;12.61;100.00
32131;BME280;18639;50.716;7.086;2023-08-07T04:37:14;100147.47;;;12.75;100.00
32131;BME280;18639;50.716;7.086;2023-08-07T04:39:40;100150.06;;;12.75;100.00
32131;BME280;18639;50.716;7.086;2023-08-07T04:42:05;100106.69;;;12.43;100.00
32131;BME280;18639;50.716;7.086;2023-08-07T04:44:31;100148.97;;;12.66;100.00
32131;BME280;18639;50.716;7.086;2023-08-07T04:46:56;100156.53;;;12.69;100.00
32131;BME280;18639;50.716;7.086;2023-08-07T04:49:22;100113.16;;;12.49;100.00
32131;BME280;18639;50.716;7.086;2023-08-07T04:51:47;100174.69;;;12.80;100.00
32131;BME280;18639;50.716;7.086;2023-08-07T04:54:12;100155.34;;;12.73;100.00
32131;BME280;18639;50.716;7.086;2023-08-07T04:56:38;100167.13;;;12.77;100.00
32131;BME280;18639;50.716;7.086;2023-08-07T04:59:03;100115.75;;;12.49;100.00
32131;BME280;18639;50.716;7.086;2023-08-07T05:01:28;100122.72;;;12.59;100.00
32131;BME280;18639;50.716;7.086;2023-08-07T05:03:54;100146.16;;;12.69;100.00
32131;BME280;18639;50.716;7.086;2023-08-07T05:06:19;100124.84;;;12.54;100.00
32131;BME280;18639;50.716;7.086;2023-08-07T05:08:45;100134.41;;;12.76;100.00
32131;BME280;18639;50.716;7.086;2023-08-07T05:11:10;100158.41;;;12.89;100.00
32131;BME280;18639;50.716;7.086;2023-08-07T05:13:35;100155.16;;;12.87;100.00
32131;BME280;18639;50.716;7.086;2023-08-07T05:16:01;100110.09;;;12.66;100.00
32131;BME280;18639;50.716;7.086;2023-08-07T05:18:26;100171.16;;;13.03;100.00
32131;BME280;18639;50.716;7.086;2023-08-07T05:20:51;100155.38;;;12.95;100.00
32131;BME280;18639;50.716;7.086;2023-08-07T05:23:17;100137.56;;;12.91;100.00
32131;BME280;18639;50.716;7.086;2023-08-07T05:25:45;100127.91;;;12.82;100.00
32131;BME280;18639;50.716;7.086;2023-08-07T05:28:11;100128.13;;;12.79;100.00
32131;BME280;18639;50.716;7.086;2023-08-07T05:30:39;100149.91;;;12.98;100.00
32131;BME280;18639;50.716;7.086;2023-08-07T05:33:05;100175.19;;;13.19;100.00
32131;BME280;18639;50.716;7.086;2023-08-07T05:35:30;100134.97;;;13.02;100.00
32131;BME280;18639;50.716;7.086;2023-08-07T05:37:55;100112.22;;;12.83;100.00
32131;BME280;18639;50.716;7.086;2023-08-07T05:40:21;100154.41;;;13.07;100.00
32131;BME280;18639;50.716;7.086;2023-08-07T05:42:46;100157.97;;;13.18;100.00
32131;BME280;18639;50.716;7.086;2023-08-07T05:45:11;100161.63;;;13.15;100.00
32131;BME280;18639;50.716;7.086;2023-08-07T05:47:37;100179.09;;;13.24;100.00
32131;BME280;18639;50.716;7.086;2023-08-07T05:50:03;100182.59;;;13.34;100.00
32131;BME280;18639;50.716;7.086;2023-08-07T05:52:28;100167.84;;;13.35;100.00
32131;BME280;18639;50.716;7.086;2023-08-07T05:54:54;100183.28;;;13.36;100.00
32131;BME280;18639;50.716;7.086;2023-08-07T05:57:19;100183.28;;;13.36;100.00
32131;BME280;18639;50.716;7.086;2023-08-07T05:59:45;100172.81;;;13.27;100.00
32131;BME280;18639;50.716;7.086;2023-08-07T06:02:13;100189.78;;;13.42;100.00
32131;BME280;18639;50.716;7.086;2023-08-07T06:04:39;100194.97;;;13.42;100.00
32131;BME280;18639;50.716;7.086;2023-08-07T06:07:06;100149.47;;;13.16;100.00
32131;BME280;18639;50.716;7.086;2023-08-07T06:09:32;100182.69;;;13.44;100.00
32131;BME280;18639;50.716;7.086;2023-08-07T06:11:58;100186.22;;;13.43;100.00
32131;BME280;18639;50.716;7.086;2023-08-07T06:14:23;100184.72;;;13.40;100.00
32131;BME280;18639;50.716;7.086;2023-08-07T06:16:50;100189.53;;;13.45;100.00
32131;BME280;18639;50.716;7.086;2023-08-07T06:19:16;100185.19;;;13.45;100.00
32131;BME280;18639;50.716;7.086;2023-08-07T06:21:41;100134.84;;;13.15;100.00
32131;BME280;18639;50.716;7.086;2023-08-07T06:24:07;100134.34;;;13.09;100.00
32131;BME280;18639;50.716;7.086;2023-08-07T06:26:32;100202.63;;;13.43;100.00
32131;BME280;18639;50.716;7.086;2023-08-07T06:28:57;100186.13;;;13.44;100.00
32131;BME280;18639;50.716;7.086;2023-08-07T06:31:22;100187.44;;;13.39;100.00
32131;BME280;18639;50.716;7.086;2023-08-07T06:33:49;100205.13;;;13.45;100.00
32131;BME280;18639;50.716;7.086;2023-08-07T06:36:14;100224.09;;;13.57;100.00
32131;BME280;18639;50.716;7.086;2023-08-07T06:38:39;100207.00;;;13.43;100.00
32131;BME280;18639;50.716;7.086;2023-08-07T06:41:05;100189.09;;;13.29;100.00
32131;BME280;18639;50.716;7.086;2023-08-07T06:43:30;100198.19;;;13.23;100.00
32131;BME280;18639;50.716;7.086;2023-08-07T06:45:56;100226.34;;;13.50;100.00
32131;BME280;18639;50.716;7.086;2023-08-07T06:48:22;100218.47;;;13.29;100.00
32131;BME280;18639;50.716;7.086;2023-08-07T06:50:48;100229.91;;;13.38;100.00
32131;BME280;18639;50.716;7.086;2023-08-07T06:53:14;100230.38;;;13.32;100.00
32131;BME280;18639;50.716;7.086;2023-08-07T06:55:41;100239.09;;;13.31;100.00
32131;BME280;18639;50.716;7.086;2023-08-07T06:58:06;100195.31;;;13.04;100.00
32131;BME280;18639;50.716;7.086;2023-08-07T07:00:32;100220.78;;;13.10;100.00
32131;BME280;18639;50.716;7.086;2023-08-07T07:02:59;100236.34;;;13.10;100.00
32131;BME280;18639;50.716;7.086;2023-08-07T07:05:24;100230.22;;;13.00;100.00
32131;BME280;18639;50.716;7.086;2023-08-07T07:07:49;100223.25;;;12.89;100.00
32131;BME280;18639;50.716;7.086;2023-08-07T07:10:14;100225.16;;;12.87;100.00
32131;BME280;18639;50.716;7.086;2023-08-07T07:12:40;100233.88;;;12.86;100.00
32131;BME280;18639;50.716;7.086;2023-08-07T07:15:05;100221.34;;;12.69;100.00
32131;BME280;18639;50.716;7.086;2023-08-07T07:17:31;100217.34;;;12.65;100.00
32131;BME280;18639;50.716;7.086;2023-08-07T07:19:56;100263.56;;;12.82;100.00
32131;BME280;18639;50.716;7.086;2023-08-07T07:22:22;100247.38;;;12.68;100.00
32131;BME280;18639;50.716;7.086;2023-08-07T07:24:47;100224.84;;;12.57;100.00
32131;BME280;18639;50.716;7.086;2023-08-07T07:27:12;100243.75;;;12.70;100.00
32131;BME280;18639;50.716;7.086;2023-08-07T07:29:38;100227.06;;;12.50;100.00
32131;BME280;18639;50.716;7.086;2023-08-07T07:32:03;100273.44;;;12.77;100.00
32131;BME280;18639;50.716;7.086;2023-08-07T07:34:29;100272.50;;;12.78;100.00
32131;BME280;18639;50.716;7.086;2023-08-07T07:36:54;100198.19;;;12.33;100.00
32131;BME280;18639;50.716;7.086;2023-08-07T07:39:20;100251.06;;;12.65;100.00
32131;BME280;18639;50.716;7.086;2023-08-07T07:41:45;100275.59;;;12.83;100.00
32131;BME280;18639;50.716;7.086;2023-08-07T07:44:11;100265.66;;;12.77;100.00
32131;BME280;18639;50.716;7.086;2023-08-07T07:46:36;100245.03;;;12.64;100.00
32131;BME280;18639;50.716;7.086;2023-08-07T07:49:01;100279.63;;;12.87;100.00
32131;BME280;18639;50.716;7.086;2023-08-07T07:51:28;100300.50;;;12.97;100.00
32131;BME280;18639;50.716;7.086;2023-08-07T07:53:54;100238.69;;;12.69;100.00
32131;BME280;18639;50.716;7.086;2023-08-07T07:56:19;100241.03;;;12.72;100.00
32131;BME280;18639;50.716;7.086;2023-08-07T07:58:45;100241.75;;;12.74;100.00
32131;BME280;18639;50.716;7.086;2023-08-07T08:01:10;100288.41;;;13.20;100.00
32131;BME280;18639;50.716;7.086;2023-08-07T08:03:36;100298.09;;;13.18;100.00
32131;BME280;18639;50.716;7.086;2023-08-07T08:06:01;100295.38;;;13.19;100.00
32131;BME280;18639;50.716;7.086;2023-08-07T08:08:26;100292.19;;;13.16;100.00
32131;BME280;18639;50.716;7.086;2023-08-07T08:10:52;100304.13;;;13.29;100.00
32131;BME280;18639;50.716;7.086;2023-08-07T08:13:17;100289.84;;;13.24;100.00
32131;BME280;18639;50.716;7.086;2023-08-07T08:15:44;100319.81;;;13.39;100.00
32131;BME280;18639;50.716;7.086;2023-08-07T08:18:09;100320.03;;;13.36;100.00
32131;BME280;18639;50.716;7.086;2023-08-07T08:20:36;100313.91;;;13.37;100.00
32131;BME280;18639;50.716;7.086;2023-08-07T08:23:01;100336.31;;;13.49;100.00
32131;BME280;18639;50.716;7.086;2023-08-07T08:25:26;100324.75;;;13.42;100.00
32131;BME280;18639;50.716;7.086;2023-08-07T08:27:52;100342.25;;;13.51;100.00
32131;BME280;18639;50.716;7.086;2023-08-07T08:30:17;100325.94;;;13.49;100.00
32131;BME280;18639;50.716;7.086;2023-08-07T08:32:43;100305.75;;;13.30;100.00
32131;BME280;18639;50.716;7.086;2023-08-07T08:35:09;100346.00;;;13.58;100.00
32131;BME280;18639;50.716;7.086;2023-08-07T08:37:35;100340.34;;;13.64;100.00
32131;BME280;18639;50.716;7.086;2023-08-07T08:40:00;100334.19;;;13.54;100.00
32131;BME280;18639;50.716;7.086;2023-08-07T08:42:26;100359.22;;;13.66;100.00
32131;BME280;18639;50.716;7.086;2023-08-07T08:44:54;100284.97;;;13.30;100.00
32131;BME280;18639;50.716;7.086;2023-08-07T08:47:25;100303.75;;;13.45;100.00
32131;BME280;18639;50.716;7.086;2023-08-07T08:50:07;100289.84;;;13.46;100.00
32131;BME280;18639;50.716;7.086;2023-08-07T08:52:33;100349.78;;;13.87;100.00
32131;BME280;18639;50.716;7.086;2023-08-07T08:54:58;100363.69;;;13.98;100.00
32131;BME280;18639;50.716;7.086;2023-08-07T08:57:25;100357.31;;;14.02;100.00
32131;BME280;18639;50.716;7.086;2023-08-07T08:59:51;100335.59;;;13.91;100.00
32131;BME280;18639;50.716;7.086;2023-08-07T09:02:16;100358.69;;;14.17;100.00
32131;BME280;18639;50.716;7.086;2023-08-07T09:04:43;100364.34;;;14.22;100.00
32131;BME280;18639;50.716;7.086;2023-08-07T09:07:09;100346.53;;;14.17;100.00
32131;BME280;18639;50.716;7.086;2023-08-07T09:09:35;100355.38;;;14.26;100.00
32131;BME280;18639;50.716;7.086;2023-08-07T09:12:02;100367.06;;;14.31;100.00
32131;BME280;18639;50.716;7.086;2023-08-07T09:14:30;100375.22;;;14.38;100.00
32131;BME280;18639;50.716;7.086;2023-08-07T09:17:00;100360.06;;;14.32;100.00
32131;BME280;18639;50.716;7.086;2023-08-07T09:19:26;100345.47;;;14.20;100.00
32131;BME280;18639;50.716;7.086;2023-08-07T09:21:52;100357.16;;;14.37;100.00
32131;BME280;18639;50.716;7.086;2023-08-07T09:24:17;100344.34;;;14.33;100.00
32131;BME280;18639;50.716;7.086;2023-08-07T09:26:44;100379.03;;;14.66;100.00
32131;BME280;18639;50.716;7.086;2023-08-07T09:29:16;100381.47;;;14.79;100.00
32131;BME280;18639;50.716;7.086;2023-08-07T09:31:44;100390.63;;;14.94;100.00
32131;BME280;18639;50.716;7.086;2023-08-07T09:34:13;100305.19;;;14.57;100.00
32131;BME280;18639;50.716;7.086;2023-08-07T09:36:45;100396.59;;;15.26;100.00
32131;BME280;18639;50.716;7.086;2023-08-07T09:39:12;100340.16;;;15.06;100.00
32131;BME280;18639;50.716;7.086;2023-08-07T09:41:39;100332.66;;;14.92;100.00
32131;BME280;18639;50.716;7.086;2023-08-07T09:44:09;100407.25;;;15.44;100.00
32131;BME280;18639;50.716;7.086;2023-08-07T09:46:44;100387.91;;;15.37;100.00
32131;BME280;18639;50.716;7.086;2023-08-07T09:49:10;100393.88;;;15.28;100.00
32131;BME280;18639;50.716;7.086;2023-08-07T09:54:08;100365.47;;;14.83;100.00
32131;BME280;18639;50.716;7.086;2023-08-07T09:56:38;100331.59;;;14.42;100.00
32131;BME280;18639;50.716;7.086;2023-08-07T09:59:26;100422.41;;;14.97;100.00
32131;BME280;18639;50.716;7.086;2023-08-07T10:02:01;100391.16;;;14.77;100.00
32131;BME280;18639;50.716;7.086;2023-08-07T10:08:06;100388.16;;;14.60;100.00
32131;BME280;18639;50.716;7.086;2023-08-07T10:11:01;100410.31;;;14.75;100.00
32131;BME280;18639;50.716;7.086;2023-08-07T10:13:35;100436.63;;;14.93;100.00
32131;BME280;18639;50.716;7.086;2023-08-07T10:16:00;100407.22;;;14.82;100.00
32131;BME280;18639;50.716;7.086;2023-08-07T10:18:26;100349.66;;;14.32;100.00
32131;BME280;18639;50.716;7.086;2023-08-07T10:20:52;100380.97;;;14.53;100.00
32131;BME280;18639;50.716;7.086;2023-08-07T10:23:33;100397.81;;;14.69;100.00
32131;BME280;18639;50.716;7.086;2023-08-07T10:26:08;100381.25;;;14.70;100.00
32131;BME280;18639;50.716;7.086;2023-08-07T10:28:51;100412.13;;;14.96;100.00
32131;BME280;18639;50.716;7.086;2023-08-07T10:31:27;100409.47;;;15.07;100.00
32131;BME280;18639;50.716;7.086;2023-08-07T10:34:19;100405.75;;;15.21;100.00
32131;BME280;18639;50.716;7.086;2023-08-07T10:37:39;100410.66;;;15.44;100.00
32131;BME280;18639;50.716;7.086;2023-08-07T10:40:07;100441.34;;;15.82;100.00
32131;BME280;18639;50.716;7.086;2023-08-07T10:45:17;100422.50;;;15.99;100.00
32131;BME280;18639;50.716;7.086;2023-08-07T10:47:45;100442.22;;;16.32;100.00
32131;BME280;18639;50.716;7.086;2023-08-07T10:50:48;100422.88;;;16.35;100.00
32131;BME280;18639;50.716;7.086;2023-08-07T10:56:08;100407.41;;;16.03;100.00
32131;BME280;18639;50.716;7.086;2023-08-07T10:58:38;100443.28;;;16.20;100.00
32131;BME280;18639;50.716;7.086;2023-08-07T11:06:29;100450.38;;;16.58;100.00
32131;BME280;18639;50.716;7.086;2023-08-07T11:08:57;100436.97;;;16.72;100.00
32131;BME280;18639;50.716;7.086;2023-08-07T11:11:23;100442.09;;;16.93;100.00
32131;BME280;18639;50.716;7.086;2023-08-07T11:13:48;100446.47;;;16.93;100.00
32131;BME280;18639;50.716;7.086;2023-08-07T11:16:14;100448.25;;;17.02;100.00
32131;BME280;18639;50.716;7.086;2023-08-07T11:18:40;100430.00;;;16.92;100.00
32131;BME280;18639;50.716;7.086;2023-08-07T11:21:08;100454.03;;;16.96;100.00
32131;BME280;18639;50.716;7.086;2023-08-07T11:23:36;100432.19;;;16.87;100.00
32131;BME280;18639;50.716;7.086;2023-08-07T11:26:01;100418.16;;;16.78;100.00
32131;BME280;18639;50.716;7.086;2023-08-07T11:28:28;100426.81;;;16.79;100.00
32131;BME280;18639;50.716;7.086;2023-08-07T11:30:56;100448.69;;;16.97;100.00
32131;BME280;18639;50.716;7.086;2023-08-07T11:33:23;100451.41;;;17.05;100.00
32131;BME280;18639;50.716;7.086;2023-08-07T11:35:49;100435.59;;;17.16;100.00
32131;BME280;18639;50.716;7.086;2023-08-07T11:38:38;100443.97;;;17.39;100.00
32131;BME280;18639;50.716;7.086;2023-08-07T11:41:06;100452.31;;;17.52;100.00
32131;BME280;18639;50.716;7.086;2023-08-07T11:43:35;100440.06;;;17.53;100.00
32131;BME280;18639;50.716;7.086;2023-08-07T11:46:03;100436.91;;;17.59;100.00
32131;BME280;18639;50.716;7.086;2023-08-07T11:48:35;100403.94;;;17.39;100.00
32131;BME280;18639;50.716;7.086;2023-08-07T11:54:14;100358.56;;;17.40;100.00
32131;BME280;18639;50.716;7.086;2023-08-07T11:56:48;100379.25;;;17.70;99.52
32131;BME280;18639;50.716;7.086;2023-08-07T11:59:31;100405.03;;;17.92;98.46
32131;BME280;18639;50.716;7.086;2023-08-07T12:01:58;100410.34;;;18.00;86.48
32131;BME280;18639;50.716;7.086;2023-08-07T12:04:35;100412.41;;;18.06;90.31
32131;BME280;18639;50.716;7.086;2023-08-07T12:07:00;100433.19;;;18.08;81.85
32131;BME280;18639;50.716;7.086;2023-08-07T12:09:25;100433.72;;;18.12;86.48
32131;BME280;18639;50.716;7.086;2023-08-07T12:11:55;100419.66;;;18.13;87.82
32131;BME280;18639;50.716;7.086;2023-08-07T12:14:21;100425.66;;;18.23;88.03
32131;BME280;18639;50.716;7.086;2023-08-07T12:16:47;100432.56;;;18.24;89.97
32131;BME280;18639;50.716;7.086;2023-08-07T12:19:12;100427.25;;;18.16;83.96
32131;BME280;18639;50.716;7.086;2023-08-07T12:21:39;100371.16;;;17.73;85.70
32131;BME280;18639;50.716;7.086;2023-08-07T12:24:06;100389.06;;;17.68;83.32
32131;BME280;18639;50.716;7.086;2023-08-07T12:26:32;100423.03;;;17.95;83.72
32131;BME280;18639;50.716;7.086;2023-08-07T12:28:57;100427.94;;;18.08;81.00
32131;BME280;18639;50.716;7.086;2023-08-07T12:31:22;100427.91;;;18.18;82.61
32131;BME280;18639;50.716;7.086;2023-08-07T12:33:48;100367.41;;;17.76;82.25
32131;BME280;18639;50.716;7.086;2023-08-07T12:36:13;100384.19;;;18.00;78.43
32131;BME280;18639;50.716;7.086;2023-08-07T12:42:01;100359.03;;;17.99;79.20
32131;BME280;18639;50.716;7.086;2023-08-07T12:48:17;100370.09;;;18.11;79.65
32131;BME280;18639;50.716;7.086;2023-08-07T13:08:19;100348.41;;;18.01;75.86
32131;BME280;18639;50.716;7.086;2023-08-07T13:10:44;100369.34;;;18.01;81.19
32131;BME280;18639;50.716;7.086;2023-08-07T13:13:09;100422.97;;;18.15;79.54
32131;BME280;18639;50.716;7.086;2023-08-07T13:15:35;100356.16;;;17.65;82.51
32131;BME280;18639;50.716;7.086;2023-08-07T13:18:00;100447.03;;;18.18;81.97
32131;BME280;18639;50.716;7.086;2023-08-07T13:20:25;100429.91;;;17.96;84.63
32131;BME280;18639;50.716;7.086;2023-08-07T13:23:10;100406.31;;;17.88;86.53
32131;BME280;18639;50.716;7.086;2023-08-07T13:25:37;100443.91;;;18.15;85.96
32131;BME280;18639;50.716;7.086;2023-08-07T13:28:02;100437.78;;;18.24;86.27
32131;BME280;18639;50.716;7.086;2023-08-07T13:30:37;100422.91;;;18.24;80.42